createdAt,value
2023-05-11T00:00:47.605Z,78.1509
2023-05-11T00:01:55.609Z,78.0961
2023-05-11T00:03:03.864Z,78.0680
2023-05-11T00:04:12.060Z,78.1295
2023-05-11T00:05:19.833Z,78.2281
2023-05-11T00:06:28.070Z,78.3027
2023-05-11T00:07:35.900Z,78.3232
2023-05-11T00:08:43.946Z,78.1557
2023-05-11T00:09:52.083Z,78.2703
2023-05-11T00:11:00.154Z,78.4206
2023-05-11T00:12:07.992Z,78.3875
2023-05-11T00:13:16.079Z,78.1625
2023-05-11T00:14:24.127Z,78.1199
2023-05-11T00:15:32.350Z,78.1041
2023-05-11T00:16:40.448Z,78.0401
2023-05-11T00:17:48.457Z,77.8751
2023-05-11T00:18:56.559Z,77.8356
2023-05-11T00:20:04.526Z,77.9044
2023-05-11T00:21:12.648Z,78.0060
2023-05-11T00:22:20.810Z,78.0616
2023-05-11T00:23:28.699Z,77.9188
2023-05-11T00:24:36.788Z,77.7518
2023-05-11T00:25:44.895Z,77.6141
2023-05-11T00:26:52.777Z,77.7070
2023-05-11T00:28:00.819Z,77.7833
2023-05-11T00:29:08.860Z,77.8448
2023-05-11T00:30:17.387Z,77.7752
2023-05-11T00:31:25.174Z,77.7519
2023-05-11T00:32:33.181Z,77.6917
2023-05-11T00:33:41.258Z,77.6778
2023-05-11T00:34:49.350Z,77.7511
2023-05-11T00:35:57.602Z,77.6659
2023-05-11T00:37:05.445Z,77.5219
2023-05-11T00:38:13.518Z,77.4309
2023-05-11T00:39:21.661Z,77.3782
2023-05-11T00:40:29.582Z,77.2467
2023-05-11T00:41:37.535Z,77.0289
2023-05-11T00:42:45.566Z,77.0214
2023-05-11T00:43:53.610Z,77.2254
2023-05-11T00:45:01.814Z,77.5535
2023-05-11T00:46:10.094Z,77.4426
2023-05-11T00:47:17.951Z,77.3702
2023-05-11T00:48:25.842Z,77.5237
2023-05-11T00:49:34.014Z,77.6100
2023-05-11T00:50:42.110Z,77.6973
2023-05-11T00:51:50.159Z,77.7850
2023-05-11T00:52:58.229Z,77.7936
2023-05-11T00:54:06.245Z,77.6572
2023-05-11T00:55:14.313Z,77.5811
2023-05-11T00:56:22.263Z,77.5579
2023-05-11T00:57:30.275Z,77.5448
2023-05-11T00:58:38.401Z,77.3952
2023-05-11T00:59:46.497Z,77.2037
2023-05-11T01:00:54.600Z,77.1388
2023-05-11T01:02:02.726Z,77.1102
2023-05-11T01:03:10.749Z,77.1040
2023-05-11T01:04:18.746Z,77.0364
2023-05-11T01:05:26.769Z,77.0825
2023-05-11T01:06:34.826Z,77.0321
2023-05-11T01:07:42.969Z,76.9697
2023-05-11T01:08:50.957Z,77.0312
2023-05-11T01:09:58.994Z,76.9934
2023-05-11T01:11:06.984Z,77.0004
2023-05-11T01:12:15.038Z,77.0975
2023-05-11T01:13:23.038Z,77.0355
2023-05-11T01:14:31.234Z,77.1955
2023-05-11T01:15:39.292Z,77.3849
2023-05-11T01:16:47.493Z,77.3838
2023-05-11T01:17:55.474Z,77.2626
2023-05-11T01:19:03.598Z,77.1268
2023-05-11T01:20:11.765Z,77.0672
2023-05-11T01:21:19.592Z,77.0041
2023-05-11T01:22:27.765Z,76.9864
2023-05-11T01:23:35.759Z,76.8563
2023-05-11T01:24:43.897Z,76.8655
2023-05-11T01:25:51.692Z,76.8597
2023-05-11T01:26:59.750Z,77.1485
2023-05-11T01:28:07.846Z,77.4462
2023-05-11T01:29:16.099Z,77.7008
2023-05-11T01:30:24.117Z,77.6921
2023-05-11T01:31:32.254Z,77.7565
2023-05-11T01:32:41.585Z,77.7211
2023-05-11T01:33:48.289Z,77.7031
2023-05-11T01:34:56.413Z,77.5996
2023-05-11T01:36:04.421Z,77.4802
2023-05-11T01:37:12.517Z,77.3217
2023-05-11T01:38:20.553Z,77.4202
2023-05-11T01:39:28.581Z,77.5249
2023-05-11T01:40:36.514Z,77.5062
2023-05-11T01:41:44.572Z,77.5096
2023-05-11T01:42:52.617Z,77.5421
2023-05-11T01:44:00.902Z,77.5051
2023-05-11T01:45:08.998Z,77.4567
2023-05-11T01:46:16.995Z,77.4880
2023-05-11T01:47:25.019Z,77.4518
2023-05-11T01:48:33.113Z,77.3914
2023-05-11T01:49:40.942Z,77.3566
2023-05-11T01:50:49.131Z,77.4958
2023-05-11T01:51:57.562Z,77.6294
2023-05-11T01:53:05.260Z,77.5565
2023-05-11T01:54:13.354Z,77.6635
2023-05-11T01:55:21.255Z,77.5584
2023-05-11T01:56:29.299Z,77.5498
2023-05-11T01:57:37.391Z,77.5539
2023-05-11T01:58:45.576Z,77.6488
2023-05-11T01:59:53.682Z,77.6476
2023-05-11T02:01:01.849Z,77.6601
2023-05-11T02:02:09.805Z,77.6432
2023-05-11T02:03:17.913Z,77.6679
2023-05-11T02:04:25.911Z,77.7866
2023-05-11T02:05:33.906Z,77.8966
2023-05-11T02:06:42.037Z,77.9606
2023-05-11T02:07:49.992Z,77.9641
2023-05-11T02:08:58.231Z,77.9037
2023-05-11T02:10:05.995Z,77.8025
2023-05-11T02:11:14.033Z,77.6091
2023-05-11T02:12:22.055Z,77.4950
2023-05-11T02:13:30.308Z,77.4835
2023-05-11T02:14:38.407Z,77.4523
2023-05-11T02:15:46.411Z,77.3187
2023-05-11T02:16:54.584Z,77.1657
2023-05-11T02:18:02.648Z,77.1257
2023-05-11T02:19:10.660Z,77.0463
2023-05-11T02:20:18.766Z,76.9887
2023-05-11T02:21:26.688Z,77.1265
2023-05-11T02:22:34.776Z,77.3566
2023-05-11T02:23:42.825Z,77.4745
2023-05-11T02:24:50.812Z,77.5633
2023-05-11T02:25:58.811Z,77.6566
2023-05-11T02:27:06.866Z,77.5836
2023-05-11T02:28:15.177Z,77.5775
2023-05-11T02:29:23.088Z,77.6605
2023-05-11T02:30:31.198Z,77.5032
2023-05-11T02:31:39.306Z,77.4473
2023-05-11T02:32:47.444Z,77.4633
2023-05-11T02:33:55.342Z,77.5548
2023-05-11T02:35:03.417Z,77.6674
2023-05-11T02:36:11.505Z,77.6387
2023-05-11T02:37:19.519Z,77.5143
2023-05-11T02:38:27.722Z,77.6175
2023-05-11T02:39:35.505Z,77.6806
2023-05-11T02:40:43.596Z,77.7754
2023-05-11T02:41:51.609Z,77.7693
2023-05-11T02:42:59.816Z,77.6201
2023-05-11T02:44:07.837Z,77.5023
2023-05-11T02:45:15.925Z,77.7085
2023-05-11T02:46:24.067Z,77.9618
2023-05-11T02:47:32.039Z,78.0725
2023-05-11T02:48:40.226Z,78.1223
2023-05-11T02:49:48.161Z,78.1468
2023-05-11T02:50:56.227Z,78.2388
2023-05-11T02:52:04.327Z,78.2903
2023-05-11T02:53:12.570Z,78.2185
2023-05-11T02:54:20.219Z,78.2159
2023-05-11T02:55:28.300Z,78.1418
2023-05-11T02:56:36.387Z,78.3371
2023-05-11T02:57:44.643Z,78.5346
2023-05-11T02:58:52.632Z,78.6395
2023-05-11T03:00:00.699Z,78.6269
2023-05-11T03:01:08.792Z,78.6605
2023-05-11T03:02:16.871Z,78.6046
2023-05-11T03:03:25.075Z,78.7431
2023-05-11T03:04:33.001Z,78.8234
2023-05-11T03:05:41.033Z,78.9252
2023-05-11T03:06:49.037Z,78.9894
2023-05-11T03:07:57.147Z,78.8945
2023-05-11T03:09:05.013Z,78.9284
2023-05-11T03:10:13.055Z,78.9918
2023-05-11T03:11:21.122Z,79.2408
2023-05-11T03:12:29.289Z,79.3237
2023-05-11T03:13:37.393Z,79.3637
2023-05-11T03:14:45.425Z,79.3679
2023-05-11T03:15:53.473Z,79.2158
2023-05-11T03:17:01.617Z,79.1778
2023-05-11T03:18:09.614Z,79.2450
2023-05-11T03:19:17.665Z,79.1514
2023-05-11T03:20:25.696Z,79.1284
2023-05-11T03:21:33.873Z,79.0739
2023-05-11T03:22:41.800Z,79.1479
2023-05-11T03:23:49.761Z,79.2669
2023-05-11T03:24:57.812Z,79.4439
2023-05-11T03:26:05.878Z,79.6460
2023-05-11T03:27:14.028Z,79.6735
2023-05-11T03:28:22.191Z,79.4702
2023-05-11T03:29:30.164Z,79.2636
2023-05-11T03:30:38.221Z,79.0210
2023-05-11T03:31:47.214Z,78.8908
2023-05-11T03:32:59.191Z,78.9383
2023-05-11T03:34:07.292Z,78.8532
2023-05-11T03:35:15.292Z,78.8750
2023-05-11T03:36:23.423Z,78.8911
2023-05-11T03:37:31.282Z,79.0508
2023-05-11T03:38:39.371Z,79.0738
2023-05-11T03:39:47.459Z,79.1451
2023-05-11T03:40:55.717Z,79.2521
2023-05-11T03:42:03.615Z,79.4548
2023-05-11T03:43:11.753Z,79.6879
2023-05-11T03:44:19.762Z,79.6479
2023-05-11T03:45:27.883Z,79.4289
2023-05-11T03:46:35.985Z,79.1473
2023-05-11T03:47:44.015Z,78.9019
2023-05-11T03:48:52.008Z,78.8130
2023-05-11T03:50:00.176Z,78.7794
2023-05-11T03:51:08.105Z,78.9504
2023-05-11T03:52:16.041Z,79.0470
2023-05-11T03:53:24.066Z,79.0258
2023-05-11T03:54:32.151Z,79.0050
2023-05-11T03:55:40.447Z,78.8932
2023-05-11T03:56:48.372Z,79.0494
2023-05-11T03:57:56.446Z,79.0140
2023-05-11T03:59:04.742Z,79.1868
2023-05-11T04:00:12.567Z,79.1560
2023-05-11T04:01:20.589Z,79.1887
2023-05-11T04:02:28.646Z,79.3301
2023-05-11T04:03:36.896Z,79.2809
2023-05-11T04:04:44.805Z,79.4265
2023-05-11T04:05:52.777Z,79.4513
2023-05-11T04:07:00.768Z,79.4926
2023-05-11T04:08:08.805Z,79.3529
2023-05-11T04:09:16.891Z,79.2902
2023-05-11T04:10:24.979Z,79.3573
2023-05-11T04:11:33.170Z,79.3418
2023-05-11T04:12:41.174Z,79.3565
2023-05-11T04:13:49.197Z,79.1763
2023-05-11T04:14:57.269Z,79.0561
2023-05-11T04:16:05.312Z,79.0165
2023-05-11T04:17:13.395Z,78.9239
2023-05-11T04:18:21.469Z,78.9130
2023-05-11T04:19:29.622Z,78.8294
2023-05-11T04:20:37.612Z,78.7742
2023-05-11T04:21:45.475Z,78.8874
2023-05-11T04:22:53.553Z,78.9813
2023-05-11T04:24:01.643Z,78.9918
2023-05-11T04:25:09.886Z,79.1215
2023-05-11T04:26:17.860Z,79.2129
2023-05-11T04:27:25.876Z,79.1432
2023-05-11T04:28:34.008Z,79.0878
2023-05-11T04:29:42.126Z,79.1445
2023-05-11T04:30:50.069Z,79.0893
2023-05-11T04:31:58.231Z,79.1677
2023-05-11T04:33:06.225Z,79.2069
2023-05-11T04:34:14.230Z,79.1574
2023-05-11T04:35:22.379Z,79.2740
2023-05-11T04:36:30.215Z,79.2052
2023-05-11T04:37:38.277Z,79.0919
2023-05-11T04:38:46.327Z,79.0542
2023-05-11T04:39:54.533Z,79.1137
2023-05-11T04:41:02.587Z,79.0768
2023-05-11T04:42:10.653Z,79.1942
2023-05-11T04:43:18.679Z,79.1827
2023-05-11T04:44:26.741Z,79.3068
2023-05-11T04:45:34.832Z,79.3055
2023-05-11T04:46:42.907Z,79.5138
2023-05-11T04:47:50.919Z,79.6238
2023-05-11T04:48:58.925Z,79.7138
2023-05-11T04:50:07.037Z,79.7513
2023-05-11T04:51:14.955Z,79.7362
2023-05-11T04:52:22.972Z,79.7242
2023-05-11T04:53:31.041Z,79.6822
2023-05-11T04:54:39.228Z,79.6190
2023-05-11T04:55:47.487Z,79.6600
2023-05-11T04:56:55.341Z,79.3384
2023-05-11T04:58:03.417Z,79.0313
2023-05-11T04:59:11.638Z,78.9178
2023-05-11T05:00:19.869Z,78.8296
2023-05-11T05:01:27.652Z,79.0244
2023-05-11T05:02:35.737Z,79.3040
2023-05-11T05:03:43.785Z,79.2212
2023-05-11T05:04:51.811Z,79.0522
2023-05-11T05:05:59.661Z,79.0039
2023-05-11T05:07:07.743Z,78.8609
2023-05-11T05:08:15.770Z,78.6924
2023-05-11T05:09:23.964Z,78.7847
2023-05-11T05:10:32.122Z,78.7429
2023-05-11T05:11:40.075Z,78.7590
2023-05-11T05:12:48.170Z,78.8181
2023-05-11T05:13:56.377Z,78.7590
2023-05-11T05:15:04.420Z,78.7181
2023-05-11T05:16:12.355Z,78.8941
2023-05-11T05:17:20.479Z,78.9185
2023-05-11T05:18:28.437Z,78.9354
2023-05-11T05:19:36.567Z,78.9139
2023-05-11T05:20:44.432Z,78.9159
2023-05-11T05:21:52.635Z,78.9325
2023-05-11T05:23:00.521Z,78.9882
2023-05-11T05:24:08.709Z,78.9216
2023-05-11T05:25:16.827Z,78.8645
2023-05-11T05:26:24.801Z,78.9885
2023-05-11T05:27:34.720Z,79.0970
2023-05-11T05:28:45.791Z,78.8848
2023-05-11T05:29:53.798Z,78.6543
2023-05-11T05:31:01.971Z,78.7234
2023-05-11T05:32:10.017Z,78.7332
2023-05-11T05:33:18.019Z,78.8133
2023-05-11T05:34:25.901Z,78.6437
2023-05-11T05:35:33.982Z,78.3448
2023-05-11T05:36:42.019Z,78.2143
2023-05-11T05:37:50.185Z,78.0832
2023-05-11T05:38:58.227Z,78.1164
2023-05-11T05:40:06.298Z,77.9649
2023-05-11T05:41:14.486Z,77.7309
2023-05-11T05:42:22.447Z,77.5007
2023-05-11T05:43:30.549Z,77.3696
2023-05-11T05:44:38.597Z,77.3422
2023-05-11T05:45:46.689Z,77.3723
2023-05-11T05:46:54.693Z,77.3281
2023-05-11T05:48:02.833Z,77.3017
2023-05-11T05:49:10.643Z,77.4983
2023-05-11T05:50:18.869Z,77.5595
2023-05-11T05:51:26.772Z,77.5203
2023-05-11T05:52:34.942Z,77.5526
2023-05-11T05:53:42.997Z,77.6668
2023-05-11T05:54:51.078Z,77.7439
2023-05-11T05:55:59.268Z,77.7843
2023-05-11T05:57:07.151Z,77.8846
2023-05-11T05:58:15.203Z,78.0005
2023-05-11T05:59:23.245Z,77.9572
2023-05-11T06:00:31.343Z,78.1098
2023-05-11T06:01:39.442Z,78.3246
2023-05-11T06:02:47.586Z,78.5496
2023-05-11T06:03:55.585Z,78.7931
2023-05-11T06:05:03.433Z,79.0118
2023-05-11T06:06:11.465Z,79.1034
2023-05-11T06:07:19.689Z,79.0621
2023-05-11T06:08:27.703Z,78.9937
2023-05-11T06:09:37.424Z,79.1259
2023-05-11T06:10:48.794Z,79.2862
2023-05-11T06:11:56.904Z,79.4327
2023-05-11T06:13:04.899Z,79.4667
2023-05-11T06:14:12.940Z,79.4049
2023-05-11T06:15:20.880Z,79.1928
2023-05-11T06:16:29.181Z,79.1035
2023-05-11T06:17:36.892Z,79.1286
2023-05-11T06:18:44.969Z,79.0304
2023-05-11T06:19:52.980Z,79.0475
2023-05-11T06:21:01.198Z,78.9621
2023-05-11T06:22:09.269Z,78.8184
2023-05-11T06:23:17.245Z,78.7625
2023-05-11T06:24:25.363Z,78.9325
2023-05-11T06:25:33.340Z,79.0896
2023-05-11T06:26:41.435Z,78.9625
2023-05-11T06:27:49.704Z,78.7485
2023-05-11T06:28:57.535Z,78.5244
2023-05-11T06:30:05.569Z,78.3357
2023-05-11T06:31:13.686Z,78.3622
2023-05-11T06:32:21.605Z,78.2759
2023-05-11T06:33:29.660Z,78.3358
2023-05-11T06:34:37.696Z,78.3574
2023-05-11T06:35:45.928Z,78.2511
2023-05-11T06:36:53.913Z,78.0994
2023-05-11T06:38:02.054Z,78.0559
2023-05-11T06:39:10.022Z,77.9892
2023-05-11T06:40:18.261Z,77.8242
2023-05-11T06:41:26.168Z,77.6455
2023-05-11T06:42:34.212Z,77.6423
2023-05-11T06:43:42.213Z,77.7921
2023-05-11T06:44:50.499Z,77.8538
2023-05-11T06:45:58.378Z,77.9259
2023-05-11T06:47:06.247Z,78.0040
2023-05-11T06:48:14.423Z,78.1126
2023-05-11T06:49:22.378Z,78.2134
2023-05-11T06:50:30.834Z,77.9128
2023-05-11T06:51:38.654Z,77.8263
2023-05-11T06:52:46.635Z,77.8757
2023-05-11T06:53:54.712Z,78.0467
2023-05-11T06:55:02.849Z,77.9924
2023-05-11T06:56:10.947Z,77.9968
2023-05-11T06:57:18.888Z,78.0386
2023-05-11T06:58:27.004Z,77.9382
2023-05-11T06:59:35.020Z,78.0073
2023-05-11T07:00:43.085Z,78.1108
2023-05-11T07:01:50.989Z,78.0989
2023-05-11T07:02:59.075Z,77.7509
2023-05-11T07:04:07.171Z,77.4778
2023-05-11T07:05:15.283Z,77.3509
2023-05-11T07:06:23.350Z,77.3518
2023-05-11T07:07:31.461Z,77.4722
2023-05-11T07:08:39.450Z,77.6597
2023-05-11T07:09:47.584Z,77.8269
2023-05-11T07:10:55.566Z,77.9327
2023-05-11T07:12:03.642Z,77.8342
2023-05-11T07:13:11.820Z,77.7796
2023-05-11T07:14:19.767Z,77.7820
2023-05-11T07:15:27.827Z,77.8421
2023-05-11T07:16:35.752Z,77.5749
2023-05-11T07:17:43.858Z,77.4418
2023-05-11T07:18:51.935Z,77.1152
2023-05-11T07:20:00.066Z,77.0195
2023-05-11T07:21:08.092Z,77.0215
2023-05-11T07:22:16.158Z,76.6083
2023-05-11T07:23:24.297Z,75.9966
2023-05-11T07:24:32.266Z,75.7238
2023-05-11T07:25:40.341Z,75.6155
2023-05-11T07:26:48.372Z,75.4086
2023-05-11T07:27:56.582Z,75.1912
2023-05-11T07:29:04.567Z,75.2032
2023-05-11T07:30:12.615Z,75.2970
2023-05-11T07:31:20.559Z,75.1572
2023-05-11T07:32:28.568Z,75.1548
2023-05-11T07:33:36.637Z,75.2528
2023-05-11T07:34:44.881Z,75.1374
2023-05-11T07:35:52.792Z,75.4253
2023-05-11T07:37:00.944Z,75.6756
2023-05-11T07:38:09.099Z,75.7601
2023-05-11T07:39:17.068Z,75.5105
2023-05-11T07:40:25.118Z,75.1926
2023-05-11T07:41:33.215Z,75.2404
2023-05-11T07:42:41.226Z,75.0863
2023-05-11T07:43:49.330Z,74.7450
2023-05-11T07:44:57.367Z,74.6643
2023-05-11T07:46:05.228Z,74.4748
2023-05-11T07:47:13.298Z,74.1152
2023-05-11T07:48:21.376Z,73.9434
2023-05-11T07:49:39.922Z,73.8494
2023-05-11T07:50:42.787Z,73.6333
2023-05-11T07:51:50.496Z,73.5067
2023-05-11T07:52:58.570Z,73.4420
2023-05-11T07:54:06.642Z,73.4373
2023-05-11T07:55:14.784Z,73.4228
2023-05-11T07:56:22.761Z,73.7740
2023-05-11T07:57:30.789Z,74.0838
2023-05-11T07:58:39.066Z,73.9436
2023-05-11T07:59:46.764Z,74.0295
2023-05-11T08:00:54.800Z,74.1986
2023-05-11T08:02:02.995Z,74.4738
2023-05-11T08:03:11.143Z,74.5678
2023-05-11T08:04:19.157Z,74.7423
2023-05-11T08:05:27.338Z,74.9660
2023-05-11T08:06:35.435Z,74.9412
2023-05-11T08:07:43.276Z,74.6281
2023-05-11T08:08:51.457Z,74.4077
2023-05-11T08:09:59.455Z,74.3997
2023-05-11T08:11:07.440Z,74.4130
2023-05-11T08:12:15.481Z,74.5732
2023-05-11T08:13:23.572Z,74.7118
2023-05-11T08:14:31.523Z,74.7192
2023-05-11T08:15:39.584Z,74.7813
2023-05-11T08:16:47.639Z,74.6112
2023-05-11T08:17:55.877Z,74.4932
2023-05-11T08:19:04.000Z,74.1727
2023-05-11T08:20:11.988Z,73.9860
2023-05-11T08:21:19.973Z,73.9546
2023-05-11T08:22:28.190Z,74.0046
2023-05-11T08:23:36.127Z,73.8812
2023-05-11T08:24:44.158Z,73.8961
2023-05-11T08:25:52.238Z,73.8414
2023-05-11T08:27:00.270Z,73.4561
2023-05-11T08:28:08.401Z,72.7703
2023-05-11T08:29:16.270Z,72.6208
2023-05-11T08:30:24.313Z,72.2235
2023-05-11T08:31:32.439Z,72.0520
2023-05-11T08:33:53.569Z,71.9309
2023-05-11T08:35:01.621Z,71.9028
2023-05-11T08:36:09.680Z,71.4233
2023-05-11T08:37:17.662Z,71.0698
2023-05-11T08:38:25.851Z,70.5946
2023-05-11T08:40:46.566Z,70.1941
2023-05-11T08:41:54.656Z,70.0470
2023-05-11T08:43:02.681Z,70.0074
2023-05-11T08:44:10.804Z,69.9476
2023-05-11T08:45:19.046Z,69.8894
2023-05-11T08:46:27.215Z,69.9390
2023-05-11T08:47:35.161Z,69.6911
2023-05-11T08:48:43.075Z,69.5381
2023-05-11T08:49:51.550Z,69.3797
2023-05-11T08:50:59.189Z,69.1677
2023-05-11T08:52:08.007Z,69.2206
2023-05-11T08:53:15.296Z,69.0030
2023-05-11T08:54:23.352Z,68.4861
2023-05-11T08:55:31.317Z,68.6676
2023-05-11T08:56:39.337Z,68.6561
2023-05-11T08:57:47.411Z,68.3070
2023-05-11T08:58:56.248Z,68.2381
2023-05-11T09:00:03.643Z,67.6842
2023-05-11T09:01:11.782Z,67.2152
2023-05-11T09:02:19.791Z,66.6577
2023-05-11T09:03:27.942Z,66.1698
2023-05-11T09:04:35.865Z,65.9633
2023-05-11T09:05:43.958Z,65.7490
2023-05-11T09:06:51.956Z,65.4098
2023-05-11T09:08:00.314Z,65.3214
2023-05-11T09:09:07.974Z,65.5743
2023-05-11T09:10:15.988Z,65.8354
2023-05-11T09:11:24.111Z,66.0817
2023-05-11T09:12:32.344Z,66.2602
2023-05-11T09:13:40.286Z,66.6635
2023-05-11T09:14:48.370Z,66.9975
2023-05-11T09:15:56.464Z,67.2335
2023-05-11T09:17:04.589Z,67.7252
2023-05-11T09:18:12.614Z,67.7946
2023-05-11T09:19:20.564Z,67.8868
2023-05-11T09:20:28.650Z,67.5613
2023-05-11T09:21:36.762Z,67.3794
2023-05-11T09:22:44.765Z,67.2286
2023-05-11T09:23:52.657Z,66.9398
2023-05-11T09:25:00.749Z,67.0026
2023-05-11T09:26:08.805Z,66.8955
2023-05-11T09:27:21.287Z,66.5240
2023-05-11T09:28:35.781Z,66.1451
2023-05-11T09:29:42.822Z,66.6741
2023-05-11T09:30:50.927Z,66.5316
2023-05-11T09:31:58.895Z,66.1928
2023-05-11T09:33:06.957Z,66.2271
2023-05-11T09:34:15.015Z,66.3212
2023-05-11T09:35:23.070Z,65.4293
2023-05-11T09:36:31.270Z,64.8915
2023-05-11T09:37:39.038Z,64.7303
2023-05-11T09:38:47.118Z,64.4251
2023-05-11T09:40:25.118Z,64.0763
2023-05-11T09:41:08.250Z,63.6691
2023-05-11T09:42:16.283Z,64.0224
2023-05-11T09:43:24.306Z,64.9475
2023-05-11T09:44:32.510Z,65.3200
2023-05-11T09:45:40.436Z,65.2717
2023-05-11T09:46:48.570Z,64.7657
2023-05-11T09:47:56.578Z,64.1610
2023-05-11T09:49:04.619Z,63.5387
2023-05-11T09:50:12.764Z,63.6661
2023-05-11T09:51:20.653Z,63.9330
2023-05-11T09:52:28.766Z,63.7538
2023-05-11T09:53:36.769Z,63.4019
2023-05-11T09:54:44.943Z,63.4627
2023-05-11T09:55:53.038Z,64.1178
2023-05-11T09:57:01.132Z,64.0956
2023-05-11T09:58:09.130Z,64.4480
2023-05-11T09:59:17.189Z,65.0949
2023-05-11T10:00:25.098Z,65.5566
2023-05-11T10:01:33.368Z,65.4893
2023-05-11T10:02:41.481Z,65.2467
2023-05-11T10:03:49.509Z,65.3354
2023-05-11T10:04:57.465Z,64.9379
2023-05-11T10:06:05.381Z,64.6901
2023-05-11T10:07:13.447Z,64.4842
2023-05-11T10:08:21.460Z,64.4570
2023-05-11T10:09:29.687Z,64.1460
2023-05-11T10:10:37.831Z,63.6275
2023-05-11T10:11:45.754Z,62.8269
2023-05-11T10:12:53.930Z,62.5262
2023-05-11T10:14:01.832Z,62.3886
2023-05-11T10:15:09.897Z,62.7181
2023-05-11T10:16:18.079Z,63.6090
2023-05-11T10:17:26.086Z,65.1149
2023-05-11T10:18:34.237Z,65.8486
2023-05-11T10:19:42.198Z,65.5949
2023-05-11T10:20:50.237Z,65.5824
2023-05-11T10:21:58.157Z,66.5693
2023-05-11T10:23:06.226Z,67.2443
2023-05-11T10:24:14.337Z,67.3838
2023-05-11T10:25:22.457Z,67.3774
2023-05-11T10:26:30.590Z,68.0080
2023-05-11T10:27:38.694Z,68.9697
2023-05-11T10:28:46.619Z,69.5895
2023-05-11T10:29:54.734Z,69.8912
2023-05-11T10:31:02.784Z,70.1164
2023-05-11T10:32:10.981Z,70.5009
2023-05-11T10:33:18.984Z,70.7562
2023-05-11T10:34:26.950Z,70.9175
2023-05-11T10:35:34.989Z,70.9683
2023-05-11T10:36:42.917Z,71.1477
2023-05-11T10:37:50.977Z,71.2422
2023-05-11T10:38:59.007Z,71.2502
2023-05-11T10:40:07.185Z,71.3401
2023-05-11T10:41:15.263Z,71.3941
2023-05-11T10:42:23.443Z,71.3554
2023-05-11T10:43:31.401Z,71.5396
2023-05-11T10:44:39.422Z,71.5212
2023-05-11T10:45:47.516Z,71.5884
2023-05-11T10:46:55.736Z,71.2054
2023-05-11T10:48:03.648Z,70.9859
2023-05-11T10:49:11.647Z,71.2135
2023-05-11T10:50:20.206Z,71.4632
2023-05-11T10:51:27.619Z,71.6798
2023-05-11T10:52:35.800Z,71.9302
2023-05-11T10:53:43.756Z,71.9265
2023-05-11T10:54:51.911Z,71.7659
2023-05-11T10:55:59.988Z,71.4463
2023-05-11T10:57:08.027Z,71.4672
2023-05-11T10:58:16.233Z,71.5258
2023-05-11T10:59:24.214Z,71.4142
2023-05-11T11:00:32.234Z,71.2706
2023-05-11T11:01:40.313Z,71.2778
2023-05-11T11:02:48.470Z,71.4033
2023-05-11T11:03:56.545Z,71.3928
2023-05-11T11:05:04.467Z,71.3149
2023-05-11T11:06:12.432Z,71.3637
2023-05-11T11:07:20.435Z,71.1999
2023-05-11T11:08:28.506Z,71.3465
2023-05-11T11:09:36.806Z,70.7089
2023-05-11T11:10:44.733Z,70.1451
2023-05-11T11:11:52.795Z,69.8387
2023-05-11T11:13:00.852Z,69.8466
2023-05-11T11:14:08.964Z,70.1072
2023-05-11T11:15:17.066Z,70.2225
2023-05-11T11:16:25.071Z,70.1689
2023-05-11T11:17:33.112Z,70.1830
2023-05-11T11:18:41.221Z,70.4126
2023-05-11T11:19:49.265Z,69.8860
2023-05-11T11:20:57.189Z,69.4198
2023-05-11T11:22:05.198Z,69.2111
2023-05-11T11:23:13.279Z,69.3207
2023-05-11T11:24:21.390Z,69.6652
2023-05-11T11:25:29.564Z,69.7687
2023-05-11T11:26:37.582Z,69.5752
2023-05-11T11:27:46.011Z,69.4585
2023-05-11T11:28:53.685Z,69.1988
2023-05-11T11:30:01.863Z,69.0592
2023-05-11T11:31:09.919Z,68.9441
2023-05-11T11:32:17.836Z,68.6621
2023-05-11T11:33:25.904Z,68.1809
2023-05-11T11:34:34.013Z,67.8024
2023-05-11T11:35:42.176Z,67.7232
2023-05-11T11:36:50.005Z,67.8505
2023-05-11T11:37:57.995Z,68.0062
2023-05-11T11:39:06.316Z,67.9675
2023-05-11T11:40:15.728Z,68.0974
2023-05-11T11:41:22.320Z,68.3299
2023-05-11T11:42:30.425Z,68.3539
2023-05-11T11:43:38.428Z,68.5368
2023-05-11T11:44:46.495Z,68.6889
2023-05-11T11:45:54.672Z,69.0454
2023-05-11T11:47:02.703Z,69.5104
2023-05-11T11:48:10.827Z,69.7683
2023-05-11T11:49:18.697Z,69.9030
2023-05-11T11:50:26.731Z,70.2334
2023-05-11T11:51:34.682Z,70.4790
2023-05-11T11:52:42.766Z,70.8260
2023-05-11T11:53:51.001Z,71.1646
2023-05-11T11:54:59.157Z,71.6846
2023-05-11T11:56:07.098Z,72.1644
2023-05-11T11:57:15.116Z,72.2263
2023-05-11T11:58:23.173Z,72.0710
2023-05-11T11:59:31.295Z,72.1922
2023-05-11T12:00:39.289Z,72.1604
2023-05-11T12:01:47.496Z,72.1061
2023-05-11T12:02:55.354Z,72.0617
2023-05-11T12:04:03.627Z,72.1888
2023-05-11T12:05:11.621Z,72.5942
2023-05-11T12:06:19.484Z,72.8502
2023-05-11T12:07:27.529Z,73.1516
2023-05-11T12:08:35.691Z,73.2993
2023-05-11T12:09:43.809Z,73.4938
2023-05-11T12:10:51.972Z,73.6083
2023-05-11T12:11:59.889Z,73.6827
2023-05-11T12:13:07.941Z,73.7266
2023-05-11T12:14:15.976Z,73.6030
2023-05-11T12:15:24.011Z,73.5195
2023-05-11T12:16:32.148Z,73.4539
2023-05-11T12:17:40.132Z,73.3729
2023-05-11T12:18:48.400Z,73.4521
2023-05-11T12:19:56.131Z,73.4871
2023-05-11T12:21:04.204Z,73.5237
2023-05-11T12:22:12.294Z,73.6329
2023-05-11T12:23:20.418Z,73.6663
2023-05-11T12:24:28.548Z,73.6824
2023-05-11T12:25:36.573Z,73.6853
2023-05-11T12:26:44.478Z,73.7451
2023-05-11T12:27:52.876Z,73.7879
2023-05-11T12:29:00.744Z,73.8627
2023-05-11T12:30:08.819Z,74.0127
2023-05-11T12:31:16.902Z,74.1329
2023-05-11T12:32:24.889Z,74.1611
2023-05-11T12:33:33.047Z,74.0876
2023-05-11T12:34:41.026Z,74.0915
2023-05-11T12:35:49.406Z,74.1672
2023-05-11T12:36:59.047Z,74.3249
2023-05-11T12:38:09.933Z,74.2955
2023-05-11T12:39:18.203Z,74.3337
2023-05-11T12:40:26.384Z,74.4178
2023-05-11T12:41:34.281Z,74.5161
2023-05-11T12:42:42.348Z,74.6465
2023-05-11T12:43:50.411Z,74.7301
2023-05-11T12:44:58.529Z,74.7119
2023-05-11T12:46:06.596Z,74.7701
2023-05-11T12:47:14.620Z,74.8614
2023-05-11T12:48:22.618Z,74.8164
2023-05-11T12:49:30.688Z,74.8055
2023-05-11T12:50:38.662Z,74.7326
2023-05-11T12:51:46.741Z,74.7554
2023-05-11T12:52:54.732Z,74.6522
2023-05-11T12:54:02.986Z,74.5014
2023-05-11T12:55:11.252Z,74.4049
2023-05-11T12:56:19.103Z,74.3815
2023-05-11T12:57:27.105Z,74.3240
2023-05-11T12:58:35.153Z,74.2442
2023-05-11T12:59:43.476Z,74.2065
2023-05-11T13:00:51.308Z,74.2865
2023-05-11T13:01:59.482Z,74.3340
2023-05-11T13:03:07.460Z,74.2841
2023-05-11T13:04:15.443Z,74.1503
2023-05-11T13:05:23.403Z,73.9350
2023-05-11T13:06:31.447Z,73.6684
2023-05-11T13:07:39.579Z,73.5431
2023-05-11T13:08:47.753Z,73.4705
2023-05-11T13:09:55.910Z,73.3512
2023-05-11T13:11:03.845Z,73.2187
2023-05-11T13:12:11.912Z,73.1187
2023-05-11T13:13:20.019Z,73.0328
2023-05-11T13:14:28.122Z,72.7439
2023-05-11T13:15:36.059Z,72.5927
2023-05-11T13:16:44.104Z,72.5074
2023-05-11T13:17:52.192Z,72.3794
2023-05-11T13:19:00.420Z,72.1791
2023-05-11T13:20:08.194Z,72.0713
2023-05-11T13:21:16.213Z,71.7814
2023-05-11T13:22:24.281Z,71.6793
2023-05-11T13:23:32.463Z,71.6507
2023-05-11T13:24:40.574Z,71.7471
2023-05-11T13:25:48.579Z,71.7084
2023-05-11T13:26:56.875Z,71.7365
2023-05-11T13:28:04.697Z,71.7624
2023-05-11T13:29:12.777Z,72.0219
2023-05-11T13:30:21.102Z,72.0455
2023-05-11T13:31:29.039Z,71.7575
2023-05-11T13:32:36.973Z,71.4952
2023-05-11T13:33:45.021Z,71.3088
2023-05-11T13:34:52.879Z,71.2813
2023-05-11T13:36:01.011Z,71.3827
2023-05-11T13:37:09.035Z,71.2708
2023-05-11T13:38:17.202Z,71.1684
2023-05-11T13:39:25.298Z,71.3805
2023-05-11T13:40:33.346Z,71.5638
2023-05-11T13:41:41.430Z,71.7244
2023-05-11T13:42:49.421Z,71.5511
2023-05-11T13:43:57.497Z,71.3148
2023-05-11T13:45:05.602Z,71.6660
2023-05-11T13:46:13.605Z,71.7365